sensor_id;sensor_type;location;lat;lon;timestamp;P1;durP1;ratioP1;P2;durP2;ratioP2
28296;SDS011;62078;49.366;8.172;2022-11-06T00:00:14;6.20;;;2.65;;
28296;SDS011;62078;49.366;8.172;2022-11-06T00:02:41;4.55;;;2.60;;
28296;SDS011;62078;49.366;8.172;2022-11-06T00:05:07;4.80;;;2.60;;
28296;SDS011;62078;49.366;8.172;2022-11-06T00:07:52;5.57;;;2.67;;
28296;SDS011;62078;49.366;8.172;2022-11-06T00:10:17;5.57;;;3.25;;
28296;SDS011;62078;49.366;8.172;2022-11-06T00:12:43;5.20;;;2.50;;
28296;SDS011;62078;49.366;8.172;2022-11-06T00:15:09;4.50;;;2.65;;
28296;SDS011;62078;49.366;8.172;2022-11-06T00:17:35;6.43;;;3.00;;
28296;SDS011;62078;49.366;8.172;2022-11-06T00:20:01;4.97;;;2.58;;
28296;SDS011;62078;49.366;8.172;2022-11-06T00:22:33;4.57;;;2.53;;
28296;SDS011;62078;49.366;8.172;2022-11-06T00:25:02;4.72;;;2.60;;
28296;SDS011;62078;49.366;8.172;2022-11-06T00:27:29;4.97;;;2.47;;
28296;SDS011;62078;49.366;8.172;2022-11-06T00:29:54;4.35;;;2.63;;
28296;SDS011;62078;49.366;8.172;2022-11-06T00:32:20;5.32;;;3.03;;
28296;SDS011;62078;49.366;8.172;2022-11-06T00:34:46;4.50;;;2.88;;
28296;SDS011;62078;49.366;8.172;2022-11-06T00:37:12;4.95;;;2.53;;
28296;SDS011;62078;49.366;8.172;2022-11-06T00:39:37;5.25;;;2.53;;
28296;SDS011;62078;49.366;8.172;2022-11-06T00:42:03;4.63;;;2.58;;
28296;SDS011;62078;49.366;8.172;2022-11-06T00:44:29;3.85;;;2.30;;
28296;SDS011;62078;49.366;8.172;2022-11-06T00:46:55;4.18;;;2.40;;
28296;SDS011;62078;49.366;8.172;2022-11-06T00:49:20;4.15;;;2.35;;
28296;SDS011;62078;49.366;8.172;2022-11-06T00:51:46;5.07;;;2.80;;
28296;SDS011;62078;49.366;8.172;2022-11-06T00:54:12;5.38;;;2.50;;
28296;SDS011;62078;49.366;8.172;2022-11-06T00:56:38;5.72;;;2.78;;
28296;SDS011;62078;49.366;8.172;2022-11-06T00:59:05;4.93;;;2.78;;
28296;SDS011;62078;49.366;8.172;2022-11-06T01:01:33;3.95;;;2.20;;
28296;SDS011;62078;49.366;8.172;2022-11-06T01:04:04;5.60;;;2.47;;
28296;SDS011;62078;49.366;8.172;2022-11-06T01:06:36;3.70;;;2.60;;
28296;SDS011;62078;49.366;8.172;2022-11-06T01:09:04;4.20;;;2.15;;
28296;SDS011;62078;49.366;8.172;2022-11-06T01:11:31;4.18;;;2.60;;
28296;SDS011;62078;49.366;8.172;2022-11-06T01:13:59;4.00;;;2.17;;
28296;SDS011;62078;49.366;8.172;2022-11-06T01:16:26;4.28;;;2.45;;
28296;SDS011;62078;49.366;8.172;2022-11-06T01:18:52;4.65;;;2.50;;
28296;SDS011;62078;49.366;8.172;2022-11-06T01:21:20;6.10;;;2.10;;
28296;SDS011;62078;49.366;8.172;2022-11-06T01:23:54;6.28;;;2.45;;
28296;SDS011;62078;49.366;8.172;2022-11-06T01:26:22;5.13;;;2.72;;
28296;SDS011;62078;49.366;8.172;2022-11-06T01:28:48;4.18;;;2.38;;
28296;SDS011;62078;49.366;8.172;2022-11-06T01:31:15;5.50;;;2.60;;
28296;SDS011;62078;49.366;8.172;2022-11-06T01:33:42;4.13;;;2.38;;
28296;SDS011;62078;49.366;8.172;2022-11-06T01:36:09;3.90;;;2.22;;
28296;SDS011;62078;49.366;8.172;2022-11-06T01:38:39;5.38;;;2.40;;
28296;SDS011;62078;49.366;8.172;2022-11-06T01:41:05;3.35;;;2.08;;
28296;SDS011;62078;49.366;8.172;2022-11-06T01:43:51;4.05;;;2.38;;
28296;SDS011;62078;49.366;8.172;2022-11-06T01:46:19;5.40;;;2.72;;
28296;SDS011;62078;49.366;8.172;2022-11-06T01:48:52;5.50;;;2.20;;
28296;SDS011;62078;49.366;8.172;2022-11-06T01:51:40;4.32;;;2.30;;
28296;SDS011;62078;49.366;8.172;2022-11-06T01:54:11;3.95;;;2.50;;
28296;SDS011;62078;49.366;8.172;2022-11-06T01:56:38;3.72;;;2.15;;
28296;SDS011;62078;49.366;8.172;2022-11-06T01:59:05;4.10;;;2.30;;
28296;SDS011;62078;49.366;8.172;2022-11-06T02:01:33;4.03;;;2.13;;
28296;SDS011;62078;49.366;8.172;2022-11-06T02:04:04;4.03;;;2.40;;
28296;SDS011;62078;49.366;8.172;2022-11-06T02:06:38;4.43;;;2.50;;
28296;SDS011;62078;49.366;8.172;2022-11-06T02:09:04;4.47;;;2.38;;
28296;SDS011;62078;49.366;8.172;2022-11-06T02:11:37;4.10;;;2.40;;
28296;SDS011;62078;49.366;8.172;2022-11-06T02:17:06;3.72;;;2.28;;
28296;SDS011;62078;49.366;8.172;2022-11-06T02:19:57;4.03;;;2.45;;
28296;SDS011;62078;49.366;8.172;2022-11-06T02:25:00;4.72;;;2.50;;
28296;SDS011;62078;49.366;8.172;2022-11-06T02:27:38;3.63;;;2.10;;
28296;SDS011;62078;49.366;8.172;2022-11-06T02:30:13;3.38;;;2.33;;
28296;SDS011;62078;49.366;8.172;2022-11-06T02:32:44;5.78;;;2.50;;
28296;SDS011;62078;49.366;8.172;2022-11-06T02:35:24;5.90;;;2.20;;
28296;SDS011;62078;49.366;8.172;2022-11-06T02:37:55;4.85;;;2.00;;
28296;SDS011;62078;49.366;8.172;2022-11-06T02:40:25;4.65;;;2.00;;
28296;SDS011;62078;49.366;8.172;2022-11-06T02:42:57;4.13;;;2.50;;
28296;SDS011;62078;49.366;8.172;2022-11-06T02:45:25;4.78;;;2.30;;
28296;SDS011;62078;49.366;8.172;2022-11-06T02:47:53;5.15;;;2.38;;
28296;SDS011;62078;49.366;8.172;2022-11-06T02:50:23;6.15;;;2.25;;
28296;SDS011;62078;49.366;8.172;2022-11-06T02:53:02;4.60;;;2.58;;
28296;SDS011;62078;49.366;8.172;2022-11-06T02:55:32;7.15;;;2.25;;
28296;SDS011;62078;49.366;8.172;2022-11-06T02:58:39;4.07;;;2.28;;
28296;SDS011;62078;49.366;8.172;2022-11-06T03:01:25;4.13;;;2.33;;
28296;SDS011;62078;49.366;8.172;2022-11-06T03:03:56;4.13;;;2.53;;
28296;SDS011;62078;49.366;8.172;2022-11-06T03:06:41;3.75;;;2.30;;
28296;SDS011;62078;49.366;8.172;2022-11-06T03:09:13;4.18;;;2.10;;
28296;SDS011;62078;49.366;8.172;2022-11-06T03:11:42;3.53;;;2.30;;
28296;SDS011;62078;49.366;8.172;2022-11-06T03:22:27;4.00;;;2.25;;
28296;SDS011;62078;49.366;8.172;2022-11-06T03:27:34;5.00;;;2.30;;
28296;SDS011;62078;49.366;8.172;2022-11-06T03:30:16;4.50;;;2.05;;
28296;SDS011;62078;49.366;8.172;2022-11-06T03:40:48;4.28;;;2.42;;
28296;SDS011;62078;49.366;8.172;2022-11-06T03:43:18;4.38;;;2.40;;
28296;SDS011;62078;49.366;8.172;2022-11-06T03:45:50;3.45;;;2.20;;
28296;SDS011;62078;49.366;8.172;2022-11-06T03:48:19;3.85;;;2.33;;
28296;SDS011;62078;49.366;8.172;2022-11-06T03:51:03;4.07;;;2.08;;
28296;SDS011;62078;49.366;8.172;2022-11-06T03:53:36;3.93;;;2.13;;
28296;SDS011;62078;49.366;8.172;2022-11-06T03:56:12;3.35;;;2.00;;
28296;SDS011;62078;49.366;8.172;2022-11-06T03:59:04;4.47;;;2.33;;
28296;SDS011;62078;49.366;8.172;2022-11-06T04:01:36;5.50;;;2.55;;
28296;SDS011;62078;49.366;8.172;2022-11-06T04:04:29;3.78;;;2.00;;
28296;SDS011;62078;49.366;8.172;2022-11-06T04:07:11;4.28;;;2.30;;
28296;SDS011;62078;49.366;8.172;2022-11-06T04:09:39;3.60;;;2.17;;
28296;SDS011;62078;49.366;8.172;2022-11-06T04:12:27;4.13;;;2.25;;
28296;SDS011;62078;49.366;8.172;2022-11-06T04:17:41;9.75;;;2.47;;
28296;SDS011;62078;49.366;8.172;2022-11-06T04:20:08;4.95;;;2.03;;
28296;SDS011;62078;49.366;8.172;2022-11-06T04:23:04;5.35;;;2.13;;
28296;SDS011;62078;49.366;8.172;2022-11-06T04:25:59;5.80;;;2.10;;
28296;SDS011;62078;49.366;8.172;2022-11-06T04:42:23;3.40;;;2.10;;
28296;SDS011;62078;49.366;8.172;2022-11-06T04:45:02;4.20;;;2.17;;
28296;SDS011;62078;49.366;8.172;2022-11-06T04:47:31;5.13;;;2.28;;
28296;SDS011;62078;49.366;8.172;2022-11-06T04:49:59;4.68;;;2.15;;
28296;SDS011;62078;49.366;8.172;2022-11-06T04:52:27;4.72;;;2.28;;
28296;SDS011;62078;49.366;8.172;2022-11-06T04:54:54;6.78;;;2.20;;
28296;SDS011;62078;49.366;8.172;2022-11-06T04:57:21;4.53;;;2.35;;
28296;SDS011;62078;49.366;8.172;2022-11-06T04:59:48;4.70;;;2.10;;
28296;SDS011;62078;49.366;8.172;2022-11-06T05:02:14;3.95;;;2.38;;
28296;SDS011;62078;49.366;8.172;2022-11-06T05:04:39;4.72;;;2.05;;
28296;SDS011;62078;49.366;8.172;2022-11-06T05:07:05;5.82;;;1.95;;
28296;SDS011;62078;49.366;8.172;2022-11-06T05:09:31;4.25;;;2.22;;
28296;SDS011;62078;49.366;8.172;2022-11-06T05:11:57;4.57;;;2.15;;
28296;SDS011;62078;49.366;8.172;2022-11-06T05:14:22;4.10;;;2.00;;
28296;SDS011;62078;49.366;8.172;2022-11-06T05:16:48;5.05;;;1.80;;
28296;SDS011;62078;49.366;8.172;2022-11-06T05:19:14;5.05;;;2.10;;
28296;SDS011;62078;49.366;8.172;2022-11-06T05:21:39;4.25;;;2.08;;
28296;SDS011;62078;49.366;8.172;2022-11-06T05:24:23;4.57;;;2.30;;
28296;SDS011;62078;49.366;8.172;2022-11-06T05:26:49;3.17;;;1.80;;
28296;SDS011;62078;49.366;8.172;2022-11-06T05:29:15;3.90;;;2.13;;
28296;SDS011;62078;49.366;8.172;2022-11-06T05:31:40;4.63;;;2.05;;
28296;SDS011;62078;49.366;8.172;2022-11-06T05:34:06;7.00;;;2.50;;
28296;SDS011;62078;49.366;8.172;2022-11-06T05:36:32;4.63;;;2.10;;
28296;SDS011;62078;49.366;8.172;2022-11-06T05:38:58;4.13;;;1.95;;
28296;SDS011;62078;49.366;8.172;2022-11-06T05:41:23;5.55;;;2.13;;
28296;SDS011;62078;49.366;8.172;2022-11-06T05:43:49;4.22;;;2.33;;
28296;SDS011;62078;49.366;8.172;2022-11-06T05:46:15;3.95;;;2.10;;
28296;SDS011;62078;49.366;8.172;2022-11-06T05:48:40;3.72;;;1.92;;
28296;SDS011;62078;49.366;8.172;2022-11-06T05:51:06;3.55;;;2.15;;
28296;SDS011;62078;49.366;8.172;2022-11-06T05:53:33;4.60;;;2.05;;
28296;SDS011;62078;49.366;8.172;2022-11-06T05:56:00;3.50;;;1.90;;
28296;SDS011;62078;49.366;8.172;2022-11-06T05:58:26;3.80;;;1.98;;
28296;SDS011;62078;49.366;8.172;2022-11-06T06:00:53;5.82;;;2.08;;
28296;SDS011;62078;49.366;8.172;2022-11-06T06:03:19;4.88;;;2.30;;
28296;SDS011;62078;49.366;8.172;2022-11-06T06:05:45;3.58;;;1.95;;
28296;SDS011;62078;49.366;8.172;2022-11-06T06:08:12;4.10;;;1.95;;
28296;SDS011;62078;49.366;8.172;2022-11-06T06:10:41;3.33;;;1.85;;
28296;SDS011;62078;49.366;8.172;2022-11-06T06:13:07;3.40;;;1.60;;
28296;SDS011;62078;49.366;8.172;2022-11-06T06:15:33;3.75;;;2.03;;
28296;SDS011;62078;49.366;8.172;2022-11-06T06:18:01;3.40;;;1.60;;
28296;SDS011;62078;49.366;8.172;2022-11-06T06:20:26;3.92;;;1.80;;
28296;SDS011;62078;49.366;8.172;2022-11-06T06:22:55;4.38;;;1.83;;
28296;SDS011;62078;49.366;8.172;2022-11-06T06:25:22;5.05;;;2.33;;
28296;SDS011;62078;49.366;8.172;2022-11-06T06:27:49;5.03;;;2.40;;
28296;SDS011;62078;49.366;8.172;2022-11-06T06:30:15;4.40;;;1.90;;
28296;SDS011;62078;49.366;8.172;2022-11-06T06:32:41;3.65;;;1.88;;
28296;SDS011;62078;49.366;8.172;2022-11-06T06:35:07;4.18;;;1.73;;
28296;SDS011;62078;49.366;8.172;2022-11-06T06:37:33;4.35;;;1.95;;
28296;SDS011;62078;49.366;8.172;2022-11-06T06:39:59;3.40;;;2.03;;
28296;SDS011;62078;49.366;8.172;2022-11-06T06:42:24;4.88;;;1.95;;
28296;SDS011;62078;49.366;8.172;2022-11-06T06:44:52;2.97;;;1.77;;
28296;SDS011;62078;49.366;8.172;2022-11-06T06:47:18;3.50;;;1.88;;
28296;SDS011;62078;49.366;8.172;2022-11-06T06:49:43;3.78;;;1.90;;
28296;SDS011;62078;49.366;8.172;2022-11-06T06:52:10;4.13;;;2.00;;
28296;SDS011;62078;49.366;8.172;2022-11-06T06:54:36;3.05;;;1.90;;
28296;SDS011;62078;49.366;8.172;2022-11-06T06:57:01;3.97;;;2.00;;
28296;SDS011;62078;49.366;8.172;2022-11-06T06:59:27;4.75;;;1.88;;
28296;SDS011;62078;49.366;8.172;2022-11-06T07:01:54;3.05;;;1.85;;
28296;SDS011;62078;49.366;8.172;2022-11-06T07:04:20;3.25;;;1.70;;
28296;SDS011;62078;49.366;8.172;2022-11-06T07:06:46;4.20;;;1.95;;
28296;SDS011;62078;49.366;8.172;2022-11-06T07:09:11;3.33;;;2.05;;
28296;SDS011;62078;49.366;8.172;2022-11-06T07:11:37;5.20;;;2.00;;
28296;SDS011;62078;49.366;8.172;2022-11-06T07:14:03;5.20;;;2.00;;
28296;SDS011;62078;49.366;8.172;2022-11-06T07:16:29;4.07;;;2.10;;
28296;SDS011;62078;49.366;8.172;2022-11-06T07:18:56;3.08;;;1.80;;
28296;SDS011;62078;49.366;8.172;2022-11-06T07:21:22;5.32;;;1.98;;
28296;SDS011;62078;49.366;8.172;2022-11-06T07:23:48;3.88;;;1.92;;
28296;SDS011;62078;49.366;8.172;2022-11-06T07:26:14;4.55;;;1.98;;
28296;SDS011;62078;49.366;8.172;2022-11-06T07:28:40;5.97;;;2.35;;
28296;SDS011;62078;49.366;8.172;2022-11-06T07:31:06;5.57;;;2.53;;
28296;SDS011;62078;49.366;8.172;2022-11-06T07:33:33;5.13;;;2.05;;
28296;SDS011;62078;49.366;8.172;2022-11-06T07:36:10;5.47;;;2.05;;
28296;SDS011;62078;49.366;8.172;2022-11-06T07:38:37;4.95;;;2.10;;
28296;SDS011;62078;49.366;8.172;2022-11-06T07:41:05;6.78;;;1.98;;
28296;SDS011;62078;49.366;8.172;2022-11-06T07:43:32;3.97;;;2.30;;
28296;SDS011;62078;49.366;8.172;2022-11-06T07:45:59;4.95;;;2.20;;
28296;SDS011;62078;49.366;8.172;2022-11-06T07:48:27;5.05;;;2.22;;
28296;SDS011;62078;49.366;8.172;2022-11-06T07:50:53;4.85;;;2.20;;
28296;SDS011;62078;49.366;8.172;2022-11-06T07:53:19;4.07;;;2.30;;
28296;SDS011;62078;49.366;8.172;2022-11-06T07:55:51;3.88;;;2.13;;
28296;SDS011;62078;49.366;8.172;2022-11-06T07:58:18;5.07;;;2.30;;
28296;SDS011;62078;49.366;8.172;2022-11-06T08:00:46;3.65;;;1.90;;
28296;SDS011;62078;49.366;8.172;2022-11-06T08:03:15;6.35;;;2.30;;
28296;SDS011;62078;49.366;8.172;2022-11-06T08:05:42;10.63;;;2.65;;
28296;SDS011;62078;49.366;8.172;2022-11-06T08:08:08;4.43;;;2.40;;
28296;SDS011;62078;49.366;8.172;2022-11-06T08:10:34;7.25;;;4.80;;
28296;SDS011;62078;49.366;8.172;2022-11-06T08:13:04;14.00;;;7.85;;
28296;SDS011;62078;49.366;8.172;2022-11-06T08:44:52;9.18;;;4.80;;
28296;SDS011;62078;49.366;8.172;2022-11-06T08:47:17;8.38;;;5.30;;
28296;SDS011;62078;49.366;8.172;2022-11-06T08:49:43;5.68;;;4.00;;
28296;SDS011;62078;49.366;8.172;2022-11-06T08:52:08;8.95;;;4.70;;
28296;SDS011;62078;49.366;8.172;2022-11-06T08:54:34;9.63;;;4.53;;
28296;SDS011;62078;49.366;8.172;2022-11-06T08:57:00;8.98;;;5.15;;
28296;SDS011;62078;49.366;8.172;2022-11-06T08:59:26;7.30;;;4.50;;
28296;SDS011;62078;49.366;8.172;2022-11-06T09:01:51;7.88;;;4.57;;
28296;SDS011;62078;49.366;8.172;2022-11-06T09:04:17;8.40;;;4.13;;
28296;SDS011;62078;49.366;8.172;2022-11-06T12:59:30;6.60;;;2.50;;
28296;SDS011;62078;49.366;8.172;2022-11-06T15:08:50;9.40;;;2.78;;
28296;SDS011;62078;49.366;8.172;2022-11-06T17:55:08;7.30;;;4.55;;
28296;SDS011;62078;49.366;8.172;2022-11-06T17:57:34;14.63;;;4.70;;
28296;SDS011;62078;49.366;8.172;2022-11-06T17:59:59;9.35;;;4.38;;
28296;SDS011;62078;49.366;8.172;2022-11-06T18:02:25;17.45;;;4.60;;
28296;SDS011;62078;49.366;8.172;2022-11-06T18:04:51;9.18;;;4.50;;
28296;SDS011;62078;49.366;8.172;2022-11-06T18:07:17;9.25;;;4.63;;
28296;SDS011;62078;49.366;8.172;2022-11-06T18:09:43;10.45;;;4.63;;
28296;SDS011;62078;49.366;8.172;2022-11-06T18:12:10;10.75;;;4.28;;
28296;SDS011;62078;49.366;8.172;2022-11-06T18:14:38;11.18;;;4.70;;
28296;SDS011;62078;49.366;8.172;2022-11-06T18:17:03;13.15;;;4.15;;
28296;SDS011;62078;49.366;8.172;2022-11-06T18:19:29;17.20;;;4.90;;
28296;SDS011;62078;49.366;8.172;2022-11-06T18:21:56;8.15;;;4.10;;
28296;SDS011;62078;49.366;8.172;2022-11-06T18:24:22;11.57;;;4.57;;
28296;SDS011;62078;49.366;8.172;2022-11-06T18:26:48;11.27;;;4.90;;
28296;SDS011;62078;49.366;8.172;2022-11-06T18:29:14;7.97;;;4.70;;
28296;SDS011;62078;49.366;8.172;2022-11-06T18:31:39;13.18;;;4.35;;
28296;SDS011;62078;49.366;8.172;2022-11-06T18:34:05;9.43;;;4.65;;
28296;SDS011;62078;49.366;8.172;2022-11-06T18:36:32;6.03;;;3.92;;
28296;SDS011;62078;49.366;8.172;2022-11-06T18:39:00;10.15;;;4.30;;
28296;SDS011;62078;49.366;8.172;2022-11-06T18:41:27;12.40;;;4.40;;
28296;SDS011;62078;49.366;8.172;2022-11-06T18:43:57;7.38;;;4.03;;
28296;SDS011;62078;49.366;8.172;2022-11-06T18:46:24;9.18;;;4.00;;
28296;SDS011;62078;49.366;8.172;2022-11-06T18:48:54;8.57;;;4.28;;
28296;SDS011;62078;49.366;8.172;2022-11-06T18:51:21;5.72;;;3.58;;
28296;SDS011;62078;49.366;8.172;2022-11-06T18:53:53;9.75;;;3.53;;
28296;SDS011;62078;49.366;8.172;2022-11-06T18:56:20;10.05;;;3.92;;
28296;SDS011;62078;49.366;8.172;2022-11-06T18:58:46;7.47;;;4.03;;
28296;SDS011;62078;49.366;8.172;2022-11-06T19:01:13;9.52;;;4.07;;
28296;SDS011;62078;49.366;8.172;2022-11-06T19:03:41;6.55;;;4.10;;
28296;SDS011;62078;49.366;8.172;2022-11-06T19:06:08;5.07;;;3.90;;
28296;SDS011;62078;49.366;8.172;2022-11-06T19:08:35;6.40;;;3.70;;
28296;SDS011;62078;49.366;8.172;2022-11-06T19:11:04;8.27;;;3.80;;
28296;SDS011;62078;49.366;8.172;2022-11-06T19:13:32;5.20;;;3.88;;
28296;SDS011;62078;49.366;8.172;2022-11-06T19:15:59;6.47;;;3.58;;
28296;SDS011;62078;49.366;8.172;2022-11-06T19:18:28;6.00;;;3.75;;
28296;SDS011;62078;49.366;8.172;2022-11-06T19:20:55;8.07;;;3.80;;
28296;SDS011;62078;49.366;8.172;2022-11-06T19:23:21;6.20;;;3.72;;
28296;SDS011;62078;49.366;8.172;2022-11-06T19:25:47;7.82;;;3.95;;
28296;SDS011;62078;49.366;8.172;2022-11-06T19:28:14;5.85;;;3.55;;
28296;SDS011;62078;49.366;8.172;2022-11-06T19:30:40;7.10;;;3.80;;
28296;SDS011;62078;49.366;8.172;2022-11-06T19:33:06;5.07;;;3.50;;
28296;SDS011;62078;49.366;8.172;2022-11-06T19:35:31;5.50;;;3.38;;
28296;SDS011;62078;49.366;8.172;2022-11-06T19:37:57;6.22;;;3.55;;
28296;SDS011;62078;49.366;8.172;2022-11-06T19:40:23;7.90;;;3.85;;
28296;SDS011;62078;49.366;8.172;2022-11-06T19:42:49;5.45;;;3.45;;
28296;SDS011;62078;49.366;8.172;2022-11-06T19:45:14;8.98;;;3.78;;
28296;SDS011;62078;49.366;8.172;2022-11-06T19:47:40;7.60;;;3.40;;
28296;SDS011;62078;49.366;8.172;2022-11-06T19:50:06;5.90;;;3.17;;
28296;SDS011;62078;49.366;8.172;2022-11-06T19:52:32;7.90;;;3.50;;
28296;SDS011;62078;49.366;8.172;2022-11-06T19:54:58;6.72;;;3.63;;
28296;SDS011;62078;49.366;8.172;2022-11-06T19:57:25;6.57;;;3.63;;
28296;SDS011;62078;49.366;8.172;2022-11-06T19:59:50;5.93;;;3.53;;
28296;SDS011;62078;49.366;8.172;2022-11-06T20:02:16;6.85;;;3.42;;
28296;SDS011;62078;49.366;8.172;2022-11-06T20:04:42;11.38;;;3.90;;
28296;SDS011;62078;49.366;8.172;2022-11-06T20:07:08;7.38;;;3.50;;
28296;SDS011;62078;49.366;8.172;2022-11-06T20:09:34;6.00;;;3.22;;
28296;SDS011;62078;49.366;8.172;2022-11-06T20:12:00;8.32;;;3.30;;
28296;SDS011;62078;49.366;8.172;2022-11-06T20:14:27;10.00;;;3.53;;
28296;SDS011;62078;49.366;8.172;2022-11-06T20:16:53;7.93;;;3.60;;
28296;SDS011;62078;49.366;8.172;2022-11-06T20:19:19;8.23;;;3.28;;
28296;SDS011;62078;49.366;8.172;2022-11-06T20:21:44;9.13;;;3.60;;
28296;SDS011;62078;49.366;8.172;2022-11-06T20:24:10;10.45;;;3.78;;
28296;SDS011;62078;49.366;8.172;2022-11-06T20:26:36;11.65;;;3.45;;
28296;SDS011;62078;49.366;8.172;2022-11-06T20:29:02;9.82;;;3.10;;
28296;SDS011;62078;49.366;8.172;2022-11-06T20:31:28;6.57;;;3.35;;
28296;SDS011;62078;49.366;8.172;2022-11-06T20:33:55;6.28;;;2.83;;
28296;SDS011;62078;49.366;8.172;2022-11-06T20:36:23;9.75;;;2.83;;
28296;SDS011;62078;49.366;8.172;2022-11-06T20:38:51;9.38;;;3.55;;
28296;SDS011;62078;49.366;8.172;2022-11-06T20:41:18;9.10;;;3.25;;
28296;SDS011;62078;49.366;8.172;2022-11-06T20:43:44;6.45;;;3.03;;
28296;SDS011;62078;49.366;8.172;2022-11-06T20:46:11;9.05;;;3.50;;
28296;SDS011;62078;49.366;8.172;2022-11-06T20:48:39;5.28;;;2.70;;
28296;SDS011;62078;49.366;8.172;2022-11-06T20:51:10;7.25;;;3.00;;
28296;SDS011;62078;49.366;8.172;2022-11-06T20:53:39;7.35;;;3.05;;
28296;SDS011;62078;49.366;8.172;2022-11-06T20:56:06;5.57;;;3.13;;
28296;SDS011;62078;49.366;8.172;2022-11-06T20:58:32;6.65;;;2.95;;
28296;SDS011;62078;49.366;8.172;2022-11-06T21:01:21;7.05;;;2.95;;
28296;SDS011;62078;49.366;8.172;2022-11-06T21:03:47;4.45;;;2.70;;
28296;SDS011;62078;49.366;8.172;2022-11-06T21:06:14;7.95;;;2.88;;
28296;SDS011;62078;49.366;8.172;2022-11-06T21:08:41;8.55;;;3.03;;
28296;SDS011;62078;49.366;8.172;2022-11-06T21:11:08;4.97;;;3.13;;
28296;SDS011;62078;49.366;8.172;2022-11-06T21:13:41;5.22;;;2.63;;
28296;SDS011;62078;49.366;8.172;2022-11-06T21:18:37;8.20;;;2.80;;
28296;SDS011;62078;49.366;8.172;2022-11-06T21:21:09;7.07;;;2.90;;
28296;SDS011;62078;49.366;8.172;2022-11-06T21:23:45;8.30;;;2.67;;
28296;SDS011;62078;49.366;8.172;2022-11-06T21:26:12;7.30;;;2.80;;
28296;SDS011;62078;49.366;8.172;2022-11-06T21:28:40;7.40;;;2.75;;
28296;SDS011;62078;49.366;8.172;2022-11-06T21:31:10;8.80;;;2.97;;
28296;SDS011;62078;49.366;8.172;2022-11-06T21:33:40;7.95;;;3.13;;
28296;SDS011;62078;49.366;8.172;2022-11-06T21:36:11;8.27;;;3.00;;
28296;SDS011;62078;49.366;8.172;2022-11-06T21:38:38;5.28;;;3.00;;
28296;SDS011;62078;49.366;8.172;2022-11-06T21:41:08;7.32;;;2.75;;
28296;SDS011;62078;49.366;8.172;2022-11-06T21:43:35;7.43;;;2.70;;
28296;SDS011;62078;49.366;8.172;2022-11-06T21:46:06;6.97;;;2.72;;
28296;SDS011;62078;49.366;8.172;2022-11-06T21:48:33;7.53;;;2.80;;
28296;SDS011;62078;49.366;8.172;2022-11-06T21:51:03;5.32;;;2.85;;
28296;SDS011;62078;49.366;8.172;2022-11-06T21:53:30;4.85;;;2.70;;
28296;SDS011;62078;49.366;8.172;2022-11-06T21:56:15;6.22;;;2.53;;
28296;SDS011;62078;49.366;8.172;2022-11-06T21:58:41;5.57;;;2.60;;
28296;SDS011;62078;49.366;8.172;2022-11-06T22:01:06;7.45;;;2.47;;
28296;SDS011;62078;49.366;8.172;2022-11-06T22:03:32;4.47;;;2.38;;
28296;SDS011;62078;49.366;8.172;2022-11-06T22:06:02;5.68;;;2.47;;
28296;SDS011;62078;49.366;8.172;2022-11-06T22:08:39;8.30;;;2.72;;
28296;SDS011;62078;49.366;8.172;2022-11-06T22:13:39;8.68;;;2.67;;
28296;SDS011;62078;49.366;8.172;2022-11-06T22:16:05;6.07;;;2.70;;
28296;SDS011;62078;49.366;8.172;2022-11-06T22:18:33;6.18;;;2.50;;
28296;SDS011;62078;49.366;8.172;2022-11-06T22:21:09;5.38;;;2.30;;
28296;SDS011;62078;49.366;8.172;2022-11-06T22:23:36;10.88;;;3.38;;
28296;SDS011;62078;49.366;8.172;2022-11-06T22:26:08;4.93;;;2.67;;
28296;SDS011;62078;49.366;8.172;2022-11-06T22:28:36;4.90;;;2.20;;
28296;SDS011;62078;49.366;8.172;2022-11-06T22:31:02;5.90;;;2.92;;
28296;SDS011;62078;49.366;8.172;2022-11-06T22:33:29;6.25;;;2.85;;
28296;SDS011;62078;49.366;8.172;2022-11-06T22:38:30;4.07;;;2.25;;
28296;SDS011;62078;49.366;8.172;2022-11-06T22:40:57;7.20;;;2.65;;
28296;SDS011;62078;49.366;8.172;2022-11-06T22:43:25;7.72;;;3.08;;
28296;SDS011;62078;49.366;8.172;2022-11-06T22:45:51;5.30;;;2.72;;
28296;SDS011;62078;49.366;8.172;2022-11-06T22:48:19;5.95;;;2.22;;
28296;SDS011;62078;49.366;8.172;2022-11-06T22:50:45;5.18;;;2.30;;
